• Join FlightAware (Why Join?)
  • Login
  • US Flag 
12:28PM EST


 

Airport Tracker/Info


-or-


 

Live Flight TrackerFlight Track Log ✈ N468ER ✈ 25-Jul-2013 ✈ KCOD - KBIL

Flight Track Log - Related Links

Times and Time Zones

All times are in EDT time to prevent confusion due to time zone crossing. See the N468ER flight status page for this flight to view local times or setup timezone preferences in your user account.

Time Position Orientation Groundspeed Altitude Reporting Facility
EDT Latitude Longitude Course Direction KTS MPH feet Rate Location/Type
11:56AM 44.6075 -108.9686 18° North 78 90 7,500  Level Salt Lake Center
11:57AM 44.6289 -108.9586 18° North 79 91 7,900 300 Climbing Salt Lake Center
11:58AM 44.6522 -108.9542 North 81 93 8,200 300 Climbing Salt Lake Center
11:59AM 44.6772 -108.9483 North 84 97 8,600 300 Climbing Salt Lake Center
12:00PM 44.7014 -108.9414 12° North 87 100 8,900 240 Climbing Salt Lake Center
12:01PM 44.7300 -108.9328 12° North 88 101 9,200 240 Climbing Salt Lake Center
12:02PM 44.7547 -108.9247 13° North 89 102 9,500 300 Climbing Salt Lake Center
12:03PM 44.7797 -108.9181 11° North 90 104 9,900 240 Climbing Salt Lake Center
12:04PM 44.8044 -108.9108 12° North 91 105 10,100 60 Climbing Salt Lake Center
12:05PM 44.8308 -108.9022 13° North 93 107 10,100  Level Salt Lake Center
12:07PM 44.8669 -108.8897 14° North 101 116 10,100  Level Salt Lake Center
12:08PM 44.8972 -108.8806 12° North 106 122 10,100  Level Salt Lake Center
12:09PM 44.9261 -108.8722 12° North 107 123 10,100  Level Salt Lake Center
12:10PM 44.9561 -108.8636 11° North 108 124 10,100  Level Salt Lake Center
12:11PM 44.9858 -108.8547 12° North 109 125 10,100  Level Salt Lake Center
12:12PM 45.0144 -108.8444 14° North 108 124 10,100 -60 Level Salt Lake Center
12:13PM 45.0503 -108.8339 12° North 109 125 10,000 -60 Descending Salt Lake Center
12:14PM 45.0808 -108.8269 North 109 125 10,000  Level Salt Lake Center
12:15PM 45.1108 -108.8192 10° North 106 122 10,100  Climbing Salt Lake Center
12:16PM 45.1419 -108.8122 North 113 130 10,100  Level Salt Lake Center
12:17PM 45.1753 -108.8039 10° North 114 131 10,100  Level Salt Lake Center
12:18PM 45.2061 -108.7953 11° North 113 130 10,200 -60 Climbing Salt Lake Center
12:19PM 45.2400 -108.7847 12° North 116 133 10,000 -60 Descending Salt Lake Center
12:20PM 45.2703 -108.7772 10° North 112 129 10,100  Climbing Salt Lake Center
12:21PM 45.3036 -108.7672 12° North 114 131 10,100  Level Salt Lake Center
12:22PM 45.3347 -108.7594 10° North 115 132 10,100 -60 Level Salt Lake Center
12:23PM 45.3689 -108.7492 12° North 117 135 10,000  Descending Salt Lake Center
12:24PM 45.3994 -108.7392 13° North 115 132 10,100  Climbing Salt Lake Center
12:25PM 45.4328 -108.7289 12° North 114 131 10,100 -300 Level Salt Lake Center
12:26PM 45.4581 -108.7044 34° Northeast 113 130 9,500 -600 Descending Salt Lake Center
12:27PM 45.4811 -108.6661 49° Northeast 117 135 8,900 -780 Descending Salt Lake Center
12:28PM 45.4986 -108.6317 54° Northeast 110 127 7,900 -960 Descending Salt Lake Center
12:29PM 45.5233 -108.6025 40° Northeast 108 124 7,000 -480 Descending Salt Lake Center
12:30PM 45.5436 -108.5736 45° Northeast 103 119 7,000  Level Salt Lake Center
12:31PM 45.5408 -108.5350 96° East 94 108 7,100 -240 Climbing Salt Lake Center
12:32PM 45.5517 -108.4986 67° East 99 114 6,600 -300 Descending Salt Lake Center
12:33PM 45.5614 -108.4589 71° East 99 114 6,500 -180 Descending Salt Lake Center
12:34PM 45.5719 -108.4219 68° East 103 119 6,300  Descending Salt Lake Center
12:35PM 45.5969 -108.4033 28° Northeast 97 112 6,500 60 Climbing Salt Lake Center
12:37PM 45.6167 -108.3736 47° Northeast 100 115 6,500 -60 Level Salt Lake Center
12:38PM 45.6292 -108.3414 61° Northeast 94 108 6,400 -360 Descending Salt Lake Center
12:39PM 45.6500 -108.3153 41° Northeast 94 108 5,800 -300 Descending Salt Lake Center
12:40PM 45.6725 -108.2953 32° Northeast 97 112 5,800 -60 Level Salt Lake Center
12:41PM 45.6978 -108.2778 26° Northeast 93 107 5,700  Descending Salt Lake Center
12:42PM 45.7228 -108.2647 20° North 98 113 5,900  Climbing Salt Lake Center
12:43PM 45.7536 -108.2586 North 104 120 5,800 -120 Descending Salt Lake Center
12:44PM 45.7814 -108.2617 356° North 101 116 5,700 -300 Descending Salt Lake Center
12:45PM 45.7914 -108.3097 287° West 119 137 5,200 -240 Descending Salt Lake Center
12:46PM 45.7939 -108.3569 274° West 120 138 5,300 -180 Climbing Salt Lake Center
12:47PM 45.7953 -108.4069 272° West 117 135 4,900 -480 Descending Salt Lake Center
12:48PM 45.7972 -108.4517 274° West 115 132 4,300 -480 Descending Salt Lake Center
12:49PM 45.8000 -108.4939 275° West 103 119 4,000  Descending Salt Lake Center
12:50PM 45.8058 -108.5339 282° West 103 119 4,400 480 Climbing Salt Lake Center
12:51PM 45.8094 -108.5769 277° West 101 116 5,100 480 Climbing Salt Lake Center
12:52PM 45.7925 -108.6028 227° Southwest 105 121 5,500 480 Climbing Salt Lake Center
12:53PM 45.7789 -108.5758 126° Southeast 88 101 6,100 360 Climbing Salt Lake Center
12:54PM 45.7958 -108.5528 43° Northeast 88 101 6,300 360 Climbing Salt Lake Center
12:55PM 45.8172 -108.5269 40° Northeast 94 108 6,900 360 Climbing Salt Lake Center
12:56PM 45.8403 -108.5033 36° Northeast 97 112 7,100  Climbing Salt Lake Center
12:57PM 45.8603 -108.4778 42° Northeast 97 112 7,000 -60 Descending Salt Lake Center
12:58PM 45.8853 -108.4531 35° Northeast 100 115 7,000  Level Salt Lake Center
12:59PM 45.9117 -108.4378 22° Northeast 108 124 7,100  Climbing Salt Lake Center
01:00PM 45.9342 -108.4144 36° Northeast 100 115 7,100  Level Salt Lake Center